createdAt,value
2022-12-23T00:01:24.570Z,70.00
2022-12-23T00:03:57.351Z,69.88
2022-12-23T00:06:25.553Z,69.69
2022-12-23T00:08:58.702Z,69.80
2022-12-23T00:11:28.124Z,69.78
2022-12-23T00:14:20.395Z,69.99
2022-12-23T00:16:51.356Z,69.44
2022-12-23T00:19:20.880Z,69.44
2022-12-23T00:21:49.392Z,69.55
2022-12-23T00:24:17.313Z,69.59
2022-12-23T00:26:45.149Z,69.48
2022-12-23T00:29:13.054Z,69.81
2022-12-23T00:31:41.070Z,69.51
2022-12-23T00:34:10.432Z,69.60
2022-12-23T00:36:40.926Z,69.68
2022-12-23T00:39:30.740Z,69.58
2022-12-23T00:42:27.756Z,69.32
2022-12-23T00:45:15.729Z,69.21
2022-12-23T00:48:01.918Z,68.98
2022-12-23T00:50:30.742Z,69.08
2022-12-23T00:53:00.365Z,69.45
2022-12-23T00:55:28.464Z,69.54
2022-12-23T00:57:56.496Z,69.02
2022-12-23T01:00:45.295Z,69.34
2022-12-23T01:03:28.461Z,69.23
2022-12-23T01:05:59.284Z,69.84
2022-12-23T01:08:29.008Z,69.86
2022-12-23T01:10:56.992Z,69.46
2022-12-23T01:13:25.028Z,69.38
2022-12-23T01:15:52.908Z,69.55
2022-12-23T01:18:20.817Z,69.40
2022-12-23T01:20:48.731Z,69.16
2022-12-23T01:23:16.620Z,69.08
2022-12-23T01:25:45.835Z,69.51
2022-12-23T01:28:13.731Z,69.75
2022-12-23T01:30:41.668Z,69.61
2022-12-23T01:33:09.695Z,69.74
2022-12-23T01:35:37.657Z,69.76
2022-12-23T01:38:05.534Z,69.52
2022-12-23T01:40:36.429Z,69.53
2022-12-23T01:43:04.773Z,69.42
2022-12-23T01:45:34.559Z,69.47
2022-12-23T01:48:06.115Z,69.31
2022-12-23T01:50:37.595Z,69.72
2022-12-23T01:53:09.472Z,69.54
2022-12-23T01:55:41.605Z,69.50
2022-12-23T01:58:14.360Z,69.08
2022-12-23T02:01:01.184Z,69.35
2022-12-23T02:03:44.848Z,68.96
2022-12-23T02:06:36.630Z,69.21
2022-12-23T02:09:20.238Z,69.12
2022-12-23T02:12:21.461Z,69.20
2022-12-23T02:15:36.232Z,69.59
2022-12-23T02:18:21.923Z,69.84
2022-12-23T02:21:18.110Z,69.39
2022-12-23T02:24:17.510Z,69.31
2022-12-23T02:27:08.615Z,69.06
2022-12-23T02:30:04.437Z,69.49
2022-12-23T02:32:44.859Z,69.89
2022-12-23T02:35:15.950Z,69.54
2022-12-23T02:37:53.035Z,69.73
2022-12-23T02:40:30.232Z,69.52
2022-12-23T02:43:03.679Z,69.79
2022-12-23T02:45:37.736Z,69.23
2022-12-23T02:48:13.266Z,69.62
2022-12-23T02:50:44.167Z,69.50
2022-12-23T02:53:20.106Z,69.39
2022-12-23T02:55:50.316Z,69.75
2022-12-23T02:58:22.135Z,69.36
2022-12-23T03:00:51.686Z,69.62
2022-12-23T03:03:22.329Z,69.66
2022-12-23T03:05:52.306Z,69.24
2022-12-23T03:08:25.105Z,69.54
2022-12-23T03:11:04.547Z,68.95
2022-12-23T03:13:48.573Z,69.33
2022-12-23T03:16:23.588Z,69.32
2022-12-23T03:19:09.071Z,70.24
2022-12-23T03:21:44.371Z,70.08
2022-12-23T03:24:23.155Z,70.46
2022-12-23T03:26:56.779Z,70.98
2022-12-23T03:29:29.636Z,70.84
2022-12-23T03:32:00.880Z,70.75
2022-12-23T03:34:35.334Z,70.55
2022-12-23T03:37:07.425Z,70.14
2022-12-23T03:39:39.630Z,70.74
2022-12-23T03:42:14.374Z,70.77
2022-12-23T03:45:19.107Z,70.68
2022-12-23T03:47:44.580Z,70.93
2022-12-23T03:50:16.706Z,70.41
2022-12-23T03:52:51.460Z,70.01
2022-12-23T03:55:25.137Z,70.49
2022-12-23T03:57:59.812Z,70.80
2022-12-23T04:00:31.415Z,70.53
2022-12-23T04:03:07.165Z,70.79
2022-12-23T04:05:40.644Z,70.48
2022-12-23T04:08:14.434Z,70.15
2022-12-23T04:10:42.869Z,70.60
2022-12-23T04:13:11.045Z,70.49
2022-12-23T04:15:41.196Z,70.46
2022-12-23T04:18:10.717Z,70.75
2022-12-23T04:20:40.032Z,70.48
2022-12-23T04:23:07.949Z,70.38
2022-12-23T04:25:36.311Z,70.24
2022-12-23T04:28:04.519Z,70.43
2022-12-23T04:30:34.757Z,70.42
2022-12-23T04:33:03.440Z,70.23
2022-12-23T04:35:31.874Z,70.48
2022-12-23T04:38:01.285Z,69.60
2022-12-23T04:40:29.246Z,69.90
2022-12-23T04:42:57.169Z,69.76
2022-12-23T04:45:25.031Z,69.94
2022-12-23T04:47:54.449Z,70.36
2022-12-23T04:50:22.437Z,70.45
2022-12-23T04:52:50.606Z,69.87
2022-12-23T04:55:20.100Z,70.15
2022-12-23T04:57:47.938Z,69.91
2022-12-23T05:00:16.766Z,69.82
2022-12-23T05:02:44.804Z,69.27
2022-12-23T05:05:12.867Z,69.40
2022-12-23T05:07:40.767Z,70.06
2022-12-23T05:10:10.029Z,70.17
2022-12-23T05:12:39.314Z,70.22
2022-12-23T05:15:09.060Z,70.79
2022-12-23T05:17:36.946Z,70.69
2022-12-23T05:20:05.183Z,71.06
2022-12-23T05:22:33.094Z,70.81
2022-12-23T05:25:01.027Z,70.77
2022-12-23T05:27:29.068Z,71.27
2022-12-23T05:29:58.326Z,71.42
2022-12-23T05:32:26.269Z,71.26
2022-12-23T05:34:54.085Z,71.09
2022-12-23T05:37:22.198Z,71.38
2022-12-23T05:39:50.130Z,71.17
2022-12-23T05:42:19.455Z,71.02
2022-12-23T05:44:47.540Z,70.97
2022-12-23T05:47:16.842Z,70.99
2022-12-23T05:49:44.819Z,71.10
2022-12-23T05:52:12.904Z,70.95
2022-12-23T05:54:41.875Z,71.32
2022-12-23T05:57:09.747Z,71.20
2022-12-23T05:59:37.613Z,71.39
2022-12-23T06:02:06.462Z,71.97
2022-12-23T06:04:35.992Z,71.88
2022-12-23T06:07:03.853Z,71.63
2022-12-23T06:09:32.023Z,71.83
2022-12-23T06:11:59.932Z,71.74
2022-12-23T06:14:29.374Z,72.17
2022-12-23T06:16:57.640Z,72.32
2022-12-23T06:19:25.788Z,71.97
2022-12-23T06:21:55.036Z,71.35
2022-12-23T06:24:23.335Z,71.06
2022-12-23T06:26:56.700Z,70.85
2022-12-23T06:29:25.186Z,70.62
2022-12-23T06:31:53.461Z,70.81
2022-12-23T06:34:21.438Z,70.88
2022-12-23T06:36:49.383Z,70.82
2022-12-23T06:39:18.619Z,71.23
2022-12-23T06:41:46.658Z,71.28
2022-12-23T06:44:14.666Z,71.43
2022-12-23T06:46:42.858Z,71.47
2022-12-23T06:49:13.382Z,71.10
2022-12-23T06:51:42.293Z,71.46
2022-12-23T06:54:11.701Z,71.46
2022-12-23T06:56:41.200Z,71.80
2022-12-23T06:59:09.174Z,72.06
2022-12-23T07:01:37.226Z,71.80
2022-12-23T07:04:05.469Z,71.52
2022-12-23T07:06:33.585Z,71.26
2022-12-23T07:09:01.475Z,71.38
2022-12-23T07:11:29.481Z,71.55
2022-12-23T07:13:59.476Z,71.66
2022-12-23T07:16:27.677Z,71.91
2022-12-23T07:18:55.547Z,71.65
2022-12-23T07:21:28.877Z,71.69
2022-12-23T07:23:58.197Z,71.28
2022-12-23T07:26:26.097Z,71.53
2022-12-23T07:28:53.897Z,71.31
2022-12-23T07:31:23.503Z,71.29
2022-12-23T07:33:51.420Z,71.75
2022-12-23T07:36:19.363Z,71.79
2022-12-23T07:38:50.613Z,71.76
2022-12-23T07:41:18.597Z,71.88
2022-12-23T07:43:47.044Z,72.28
2022-12-23T07:46:15.385Z,71.88
2022-12-23T07:48:44.785Z,71.99
2022-12-23T07:51:12.644Z,72.26
2022-12-23T07:53:40.607Z,72.30
2022-12-23T07:56:09.185Z,72.27
2022-12-23T07:58:37.089Z,71.56
2022-12-23T08:01:09.047Z,71.68
2022-12-23T08:03:38.184Z,71.91
2022-12-23T08:06:09.729Z,71.69
2022-12-23T08:08:38.524Z,71.06
2022-12-23T08:11:08.588Z,71.46
2022-12-23T08:13:38.439Z,71.63
2022-12-23T08:16:08.439Z,71.16
2022-12-23T08:18:37.946Z,71.28
2022-12-23T08:21:09.312Z,71.03
2022-12-23T08:23:37.471Z,71.02
2022-12-23T08:26:07.557Z,71.10
2022-12-23T08:28:36.319Z,71.56
2022-12-23T08:31:06.612Z,70.92
2022-12-23T08:33:35.065Z,71.09
2022-12-23T08:36:03.631Z,70.75
2022-12-23T08:38:34.592Z,71.20
2022-12-23T08:41:02.660Z,70.96
2022-12-23T08:43:35.859Z,70.31
2022-12-23T08:46:05.957Z,70.39
2022-12-23T08:48:34.868Z,69.70
2022-12-23T08:51:07.069Z,69.95
2022-12-23T08:53:38.148Z,70.04
2022-12-23T08:56:07.901Z,69.84
2022-12-23T08:58:37.780Z,69.95
2022-12-23T09:01:07.017Z,70.22
2022-12-23T09:03:35.661Z,70.47
2022-12-23T09:06:05.960Z,70.34
2022-12-23T09:08:33.817Z,69.67
2022-12-23T09:11:03.349Z,69.95
2022-12-23T09:13:35.521Z,69.39
2022-12-23T09:16:04.167Z,69.66
2022-12-23T09:20:40.674Z,69.85
2022-12-23T09:23:08.657Z,70.08
2022-12-23T09:25:37.881Z,70.04
2022-12-23T09:28:07.420Z,69.86
2022-12-23T09:30:35.440Z,70.49
2022-12-23T09:33:03.907Z,70.45
2022-12-23T09:35:33.316Z,70.97
2022-12-23T09:38:02.652Z,71.32
2022-12-23T09:40:33.292Z,71.92
2022-12-23T09:43:14.144Z,71.47
2022-12-23T09:45:57.509Z,72.02
2022-12-23T09:48:30.849Z,71.37
2022-12-23T09:50:59.106Z,71.15
2022-12-23T09:53:46.107Z,71.16
2022-12-23T09:56:19.583Z,71.46
2022-12-23T09:58:49.888Z,70.94
2022-12-23T10:01:24.509Z,70.68
2022-12-23T10:04:20.572Z,71.16
2022-12-23T10:06:56.305Z,71.24
2022-12-23T10:09:29.928Z,71.18
2022-12-23T10:11:59.309Z,71.23
2022-12-23T10:14:32.124Z,71.18
2022-12-23T10:17:07.895Z,71.37
2022-12-23T10:19:41.939Z,71.37
2022-12-23T10:22:16.863Z,71.58
2022-12-23T10:24:48.002Z,71.43
2022-12-23T10:27:24.287Z,70.97
2022-12-23T10:29:52.629Z,71.02
2022-12-23T10:32:28.016Z,71.04
2022-12-23T10:35:01.895Z,71.45
2022-12-23T10:37:35.620Z,71.61
2022-12-23T10:40:12.163Z,71.24
2022-12-23T10:42:46.954Z,71.77
2022-12-23T10:45:39.639Z,72.12
2022-12-23T10:48:24.102Z,72.30
2022-12-23T10:50:59.628Z,71.66
2022-12-23T10:53:36.714Z,71.50
2022-12-23T10:56:08.491Z,71.90
2022-12-23T10:58:39.467Z,71.66
2022-12-23T11:01:15.253Z,71.68
2022-12-23T11:03:57.398Z,70.80
2022-12-23T11:06:28.991Z,70.48
2022-12-23T11:09:03.919Z,70.03
2022-12-23T11:12:01.511Z,70.60
2022-12-23T11:14:36.980Z,70.66
2022-12-23T11:17:06.705Z,71.01
2022-12-23T11:19:35.091Z,71.34
2022-12-23T11:22:03.481Z,70.95
2022-12-23T11:24:38.029Z,71.36
2022-12-23T11:27:16.773Z,71.03
2022-12-23T11:29:48.038Z,70.88
2022-12-23T11:32:19.590Z,70.78
2022-12-23T11:34:49.440Z,70.87
2022-12-23T11:37:33.087Z,70.65
2022-12-23T11:40:01.292Z,70.70
2022-12-23T11:42:31.976Z,70.58
2022-12-23T11:45:01.349Z,70.40
2022-12-23T11:47:34.180Z,70.15
2022-12-23T11:50:05.384Z,70.05
2022-12-23T11:52:35.231Z,69.63
2022-12-23T11:55:08.217Z,69.70
2022-12-23T11:57:42.894Z,69.65
2022-12-23T12:00:22.314Z,70.20
2022-12-23T12:02:53.960Z,69.74
2022-12-23T12:05:27.258Z,69.80
2022-12-23T12:08:01.076Z,69.25
2022-12-23T12:10:31.575Z,69.57
2022-12-23T12:13:04.904Z,69.65
2022-12-23T12:15:42.660Z,69.58
2022-12-23T12:18:14.386Z,69.16
2022-12-23T12:20:46.095Z,72.47
2022-12-23T12:23:19.321Z,71.91
2022-12-23T12:25:52.112Z,72.41
2022-12-23T12:28:27.115Z,71.55
2022-12-23T12:31:02.245Z,70.80
2022-12-23T12:33:37.431Z,70.25
2022-12-23T12:36:13.640Z,68.99
2022-12-23T12:38:41.791Z,69.30
2022-12-23T12:41:18.112Z,69.35
2022-12-23T12:43:54.370Z,69.85
2022-12-23T12:46:31.872Z,69.95
2022-12-23T12:49:07.207Z,70.09
2022-12-23T12:51:41.392Z,69.93
2022-12-23T12:54:20.880Z,70.12
2022-12-23T12:56:51.388Z,70.01
2022-12-23T12:59:26.773Z,69.75
2022-12-23T13:02:05.318Z,70.16
2022-12-23T13:05:00.673Z,70.06
2022-12-23T13:07:39.411Z,69.87
2022-12-23T13:10:16.109Z,69.74
2022-12-23T13:12:58.267Z,69.79
2022-12-23T13:15:34.488Z,69.65
2022-12-23T13:18:17.289Z,69.69
2022-12-23T13:20:53.501Z,69.75
2022-12-23T13:23:44.791Z,69.83
2022-12-23T13:26:27.941Z,70.07
2022-12-23T13:29:04.523Z,69.77
2022-12-23T13:31:48.127Z,69.65
2022-12-23T13:34:31.342Z,70.05
2022-12-23T13:37:09.691Z,69.76
2022-12-23T13:39:51.017Z,70.19
2022-12-23T13:42:26.344Z,69.39
2022-12-23T13:44:56.304Z,69.47
2022-12-23T13:47:35.263Z,69.76
2022-12-23T13:50:10.089Z,70.33
2022-12-23T13:52:55.662Z,70.34
2022-12-23T13:55:40.140Z,69.95
2022-12-23T13:58:14.670Z,70.24
2022-12-23T14:00:43.058Z,69.84
2022-12-23T14:03:25.858Z,70.08
2022-12-23T14:05:54.834Z,69.93
2022-12-23T14:08:32.559Z,69.68
2022-12-23T14:11:03.377Z,69.96
2022-12-23T14:13:35.112Z,70.66
2022-12-23T14:16:31.584Z,70.49
2022-12-23T14:19:30.890Z,70.38
2022-12-23T14:22:10.867Z,70.16
2022-12-23T14:25:06.569Z,70.67
2022-12-23T14:27:48.079Z,70.38
2022-12-23T14:30:18.477Z,70.51
2022-12-23T14:32:49.526Z,70.24
2022-12-23T14:35:24.739Z,69.86
2022-12-23T14:38:37.791Z,70.24
2022-12-23T14:41:25.240Z,70.32
2022-12-23T14:44:02.828Z,70.31
2022-12-23T14:46:58.882Z,70.51
2022-12-23T14:49:47.721Z,70.51
2022-12-23T14:52:44.613Z,70.54
2022-12-23T14:55:41.034Z,70.46
2022-12-23T14:58:22.375Z,70.67
2022-12-23T15:00:56.805Z,71.12
2022-12-23T15:03:24.870Z,70.75
2022-12-23T15:05:53.470Z,70.44
2022-12-23T15:08:32.086Z,70.80
2022-12-23T15:11:01.001Z,70.56
2022-12-23T15:13:31.128Z,70.39
2022-12-23T15:16:01.770Z,70.83
2022-12-23T15:18:30.385Z,70.62
2022-12-23T15:21:04.569Z,70.38
2022-12-23T15:23:34.320Z,70.78
2022-12-23T15:26:03.663Z,70.69
2022-12-23T15:28:38.431Z,70.74
2022-12-23T15:31:08.219Z,70.46
2022-12-23T15:34:02.857Z,70.17
2022-12-23T15:36:32.345Z,70.05
2022-12-23T15:39:04.130Z,69.98
2022-12-23T15:41:32.779Z,70.19
2022-12-23T15:44:01.974Z,70.37
2022-12-23T15:46:32.604Z,70.45
2022-12-23T15:49:00.947Z,70.22
2022-12-23T15:54:28.983Z,70.05
2022-12-23T15:56:59.213Z,69.94
2022-12-23T15:59:33.020Z,70.68
2022-12-23T16:02:40.381Z,70.08
2022-12-23T16:05:00.440Z,70.25
2022-12-23T16:07:34.319Z,70.83
2022-12-23T16:10:06.258Z,70.94
2022-12-23T16:12:35.733Z,70.74
2022-12-23T16:15:04.773Z,70.71
2022-12-23T16:17:34.946Z,70.92
2022-12-23T16:20:21.658Z,70.97
2022-12-23T16:22:52.933Z,70.47
2022-12-23T16:25:26.192Z,71.09
2022-12-23T16:27:58.686Z,70.77
2022-12-23T16:30:33.138Z,70.78
2022-12-23T16:33:04.001Z,71.14
2022-12-23T16:35:38.890Z,70.77
2022-12-23T16:38:17.410Z,71.24
2022-12-23T16:40:48.554Z,70.71
2022-12-23T16:43:17.481Z,71.08
2022-12-23T16:45:46.634Z,70.76
2022-12-23T16:48:21.355Z,71.02
2022-12-23T16:50:56.090Z,71.21
2022-12-23T16:53:23.990Z,70.91
2022-12-23T16:55:58.510Z,70.58
2022-12-23T16:58:28.950Z,70.74
2022-12-23T17:00:58.333Z,70.71
2022-12-23T17:04:16.342Z,70.97
2022-12-23T17:06:46.828Z,70.90
2022-12-23T17:09:15.263Z,70.72
2022-12-23T17:11:46.261Z,70.97
2022-12-23T17:14:18.556Z,70.86
2022-12-23T17:16:47.147Z,70.80
2022-12-23T17:19:23.344Z,70.71
2022-12-23T17:22:00.890Z,70.97
2022-12-23T17:24:29.074Z,70.40
2022-12-23T17:26:58.684Z,70.46
2022-12-23T17:29:27.061Z,70.59
2022-12-23T17:31:55.505Z,70.84
2022-12-23T17:34:25.349Z,70.85
2022-12-23T17:36:53.543Z,70.92
2022-12-23T17:39:22.726Z,71.15
2022-12-23T17:41:51.287Z,70.85
2022-12-23T17:44:20.869Z,70.74
2022-12-23T17:46:49.088Z,70.83
2022-12-23T17:49:17.250Z,70.40
2022-12-23T17:51:45.663Z,70.61
2022-12-23T17:54:22.655Z,71.23
2022-12-23T17:56:51.047Z,71.18
2022-12-23T17:59:20.396Z,70.84
2022-12-23T18:01:48.399Z,70.99
2022-12-23T18:04:16.610Z,70.82
2022-12-23T18:06:44.693Z,71.29
2022-12-23T18:09:12.584Z,70.65
2022-12-23T18:11:43.350Z,71.04
2022-12-23T18:14:17.388Z,71.12
2022-12-23T18:16:47.334Z,71.36
2022-12-23T18:19:18.822Z,71.02
2022-12-23T18:21:47.536Z,71.06
2022-12-23T18:24:15.854Z,71.21
2022-12-23T18:26:44.229Z,71.23
2022-12-23T18:29:12.221Z,70.82
2022-12-23T18:31:51.049Z,71.43
2022-12-23T18:34:20.630Z,71.03
2022-12-23T18:36:51.531Z,70.85
2022-12-23T18:39:20.030Z,70.93
2022-12-23T18:41:48.138Z,70.93
2022-12-23T18:44:18.369Z,70.91
2022-12-23T18:46:48.219Z,70.46
2022-12-23T18:49:16.273Z,70.96
2022-12-23T18:51:44.149Z,71.18
2022-12-23T18:54:14.779Z,70.84
2022-12-23T18:56:43.269Z,70.54
2022-12-23T18:59:16.695Z,70.58
2022-12-23T19:01:44.688Z,70.37
2022-12-23T19:04:14.261Z,70.34
2022-12-23T19:06:42.415Z,70.13
2022-12-23T19:09:15.725Z,70.27
2022-12-23T19:11:43.772Z,70.17
2022-12-23T19:14:12.829Z,69.99
2022-12-23T19:16:44.659Z,69.73
2022-12-23T19:19:16.892Z,70.41
2022-12-23T19:21:44.847Z,70.69
2022-12-23T19:24:12.775Z,69.97
2022-12-23T19:26:40.679Z,69.81
2022-12-23T19:29:10.395Z,69.64
2022-12-23T19:31:38.546Z,70.40
2022-12-23T19:34:11.201Z,70.39
2022-12-23T19:36:44.734Z,70.04
2022-12-23T19:39:16.184Z,70.20
2022-12-23T19:41:44.739Z,70.34
2022-12-23T19:44:12.618Z,70.08
2022-12-23T19:46:40.493Z,70.58
2022-12-23T19:49:09.946Z,70.69
2022-12-23T19:51:39.758Z,70.95
2022-12-23T19:54:09.494Z,70.52
2022-12-23T19:56:37.457Z,70.14
2022-12-23T19:59:05.531Z,70.20
2022-12-23T20:01:33.834Z,70.09
2022-12-23T20:04:01.892Z,70.31
2022-12-23T20:06:34.118Z,70.92
2022-12-23T20:09:04.223Z,70.88
2022-12-23T20:11:36.896Z,70.88
2022-12-23T20:14:05.803Z,70.40
2022-12-23T20:16:35.277Z,70.37
2022-12-23T20:19:04.054Z,70.18
2022-12-23T20:21:32.153Z,70.09
2022-12-23T20:24:00.100Z,70.76
2022-12-23T20:26:29.187Z,70.52
2022-12-23T20:28:58.892Z,70.34
2022-12-23T20:31:28.609Z,70.81
2022-12-23T20:33:57.987Z,70.87
2022-12-23T20:36:28.554Z,70.50
2022-12-23T20:38:57.020Z,70.20
2022-12-23T20:41:27.202Z,70.55
2022-12-23T20:46:45.083Z,70.53
2022-12-23T20:49:13.655Z,70.27
2022-12-23T20:51:41.695Z,70.03
2022-12-23T20:54:09.791Z,70.30
2022-12-23T20:56:37.862Z,70.45
2022-12-23T20:59:05.757Z,70.67
2022-12-23T21:01:36.238Z,69.98
2022-12-23T21:04:08.445Z,70.17
2022-12-23T21:06:37.400Z,69.90
2022-12-23T21:09:07.042Z,69.81
2022-12-23T21:11:40.346Z,70.19
2022-12-23T21:14:08.464Z,69.94
2022-12-23T21:16:37.425Z,69.77
2022-12-23T21:19:07.867Z,69.95
2022-12-23T21:21:36.209Z,70.28
2022-12-23T21:24:05.774Z,70.24
2022-12-23T21:26:35.134Z,70.34
2022-12-23T21:29:05.706Z,70.18
2022-12-23T21:31:35.189Z,70.03
2022-12-23T21:34:03.817Z,70.16
2022-12-23T21:36:34.717Z,69.90
2022-12-23T21:39:03.488Z,70.07
2022-12-23T21:41:37.339Z,69.83
2022-12-23T21:44:06.492Z,69.73
2022-12-23T21:46:35.171Z,69.85
2022-12-23T21:49:04.095Z,70.20
2022-12-23T21:51:40.022Z,70.59
2022-12-23T21:54:10.080Z,69.75
2022-12-23T21:56:39.008Z,69.73
2022-12-23T21:59:08.544Z,70.24
2022-12-23T22:01:36.489Z,70.08
2022-12-23T22:04:05.153Z,70.05
2022-12-23T22:06:37.233Z,69.62
2022-12-23T22:09:06.561Z,70.22
2022-12-23T22:11:37.023Z,70.22
2022-12-23T22:14:06.914Z,69.82
2022-12-23T22:16:36.147Z,69.92
2022-12-23T22:19:05.677Z,69.67
2022-12-23T22:21:36.722Z,69.88
2022-12-23T22:24:05.493Z,69.86
2022-12-23T22:26:34.545Z,69.78
2022-12-23T22:29:06.618Z,70.05
2022-12-23T22:31:38.142Z,69.76
2022-12-23T22:34:07.662Z,69.71
2022-12-23T22:36:37.369Z,69.79
2022-12-23T22:39:07.784Z,69.92
2022-12-23T22:41:36.383Z,69.54
2022-12-23T22:44:04.876Z,69.82
2022-12-23T22:46:33.117Z,69.51
2022-12-23T22:49:01.036Z,69.33
2022-12-23T22:51:32.037Z,69.79
2022-12-23T22:54:03.356Z,69.60
2022-12-23T22:56:31.506Z,69.24
2022-12-23T22:58:59.658Z,68.83
2022-12-23T23:01:29.547Z,69.08
2022-12-23T23:03:58.991Z,69.85
2022-12-23T23:06:30.786Z,69.45
2022-12-23T23:08:58.917Z,69.38
2022-12-23T23:11:29.123Z,69.51
2022-12-23T23:13:58.171Z,69.12
2022-12-23T23:16:27.376Z,69.03
2022-12-23T23:18:55.633Z,69.31
2022-12-23T23:21:23.681Z,69.24
2022-12-23T23:23:51.771Z,69.46
2022-12-23T23:26:20.824Z,69.13
2022-12-23T23:28:50.146Z,69.22
2022-12-23T23:34:05.862Z,68.95
2022-12-23T23:36:33.951Z,68.92
2022-12-23T23:39:02.327Z,68.72
2022-12-23T23:41:31.070Z,68.76
2022-12-23T23:44:00.279Z,68.94
2022-12-23T23:46:28.204Z,69.08
2022-12-23T23:48:56.041Z,68.95
2022-12-23T23:51:24.492Z,68.95
2022-12-23T23:53:52.434Z,68.74
2022-12-23T23:56:25.433Z,69.31
2022-12-23T23:58:54.460Z,68.87
